sensor_id;sensor_type;location;lat;lon;timestamp;temperature;humidity
16594;DHT22;8410;52.532;13.336;2022-08-25T00:02:06;20.60;99.90
16594;DHT22;8410;52.532;13.336;2022-08-25T00:04:35;20.20;99.90
16594;DHT22;8410;52.532;13.336;2022-08-25T00:07:05;20.30;99.90
16594;DHT22;8410;52.532;13.336;2022-08-25T00:09:34;20.30;99.90
16594;DHT22;8410;52.532;13.336;2022-08-25T00:12:04;20.40;99.90
16594;DHT22;8410;52.532;13.336;2022-08-25T00:14:35;20.40;99.90
16594;DHT22;8410;52.532;13.336;2022-08-25T00:17:05;20.20;99.90
16594;DHT22;8410;52.532;13.336;2022-08-25T00:19:35;20.30;99.90
16594;DHT22;8410;52.532;13.336;2022-08-25T00:22:05;20.40;99.90
16594;DHT22;8410;52.532;13.336;2022-08-25T00:24:34;20.20;99.90
16594;DHT22;8410;52.532;13.336;2022-08-25T00:27:03;20.40;99.90
16594;DHT22;8410;52.532;13.336;2022-08-25T00:29:32;20.40;99.90
16594;DHT22;8410;52.532;13.336;2022-08-25T00:32:05;20.50;99.90
16594;DHT22;8410;52.532;13.336;2022-08-25T00:34:36;20.30;99.90
16594;DHT22;8410;52.532;13.336;2022-08-25T00:37:06;20.30;99.90
16594;DHT22;8410;52.532;13.336;2022-08-25T00:39:36;20.10;99.90
16594;DHT22;8410;52.532;13.336;2022-08-25T00:42:06;20.20;99.90
16594;DHT22;8410;52.532;13.336;2022-08-25T00:44:41;20.20;99.90
16594;DHT22;8410;52.532;13.336;2022-08-25T00:47:12;20.20;99.90
16594;DHT22;8410;52.532;13.336;2022-08-25T00:49:44;20.00;99.90
16594;DHT22;8410;52.532;13.336;2022-08-25T00:52:18;20.00;99.90
16594;DHT22;8410;52.532;13.336;2022-08-25T00:54:51;20.00;99.90
16594;DHT22;8410;52.532;13.336;2022-08-25T00:57:26;20.10;99.90
16594;DHT22;8410;52.532;13.336;2022-08-25T01:00:03;20.10;99.90
16594;DHT22;8410;52.532;13.336;2022-08-25T01:02:34;20.10;99.90
16594;DHT22;8410;52.532;13.336;2022-08-25T01:05:02;20.10;99.90
16594;DHT22;8410;52.532;13.336;2022-08-25T01:07:30;20.10;99.90
16594;DHT22;8410;52.532;13.336;2022-08-25T01:09:59;20.00;99.90
16594;DHT22;8410;52.532;13.336;2022-08-25T01:12:28;20.00;99.90
16594;DHT22;8410;52.532;13.336;2022-08-25T01:14:56;20.20;99.90
16594;DHT22;8410;52.532;13.336;2022-08-25T01:17:25;20.00;99.90
16594;DHT22;8410;52.532;13.336;2022-08-25T01:20:02;20.00;99.90
16594;DHT22;8410;52.532;13.336;2022-08-25T01:22:32;19.80;99.90
16594;DHT22;8410;52.532;13.336;2022-08-25T01:25:03;20.00;99.90
16594;DHT22;8410;52.532;13.336;2022-08-25T01:27:39;19.90;99.90
16594;DHT22;8410;52.532;13.336;2022-08-25T01:30:08;20.00;99.90
16594;DHT22;8410;52.532;13.336;2022-08-25T01:32:36;20.00;99.90
16594;DHT22;8410;52.532;13.336;2022-08-25T01:35:05;19.90;99.90
16594;DHT22;8410;52.532;13.336;2022-08-25T01:37:35;19.90;99.90
16594;DHT22;8410;52.532;13.336;2022-08-25T01:40:04;19.90;99.90
16594;DHT22;8410;52.532;13.336;2022-08-25T01:42:46;19.80;99.90
16594;DHT22;8410;52.532;13.336;2022-08-25T01:45:24;19.80;99.90
16594;DHT22;8410;52.532;13.336;2022-08-25T01:47:54;19.80;99.90
16594;DHT22;8410;52.532;13.336;2022-08-25T01:50:22;19.90;99.90
16594;DHT22;8410;52.532;13.336;2022-08-25T01:52:54;19.90;99.90
16594;DHT22;8410;52.532;13.336;2022-08-25T01:55:26;19.80;99.90
16594;DHT22;8410;52.532;13.336;2022-08-25T01:57:54;19.80;99.90
16594;DHT22;8410;52.532;13.336;2022-08-25T02:00:23;19.70;99.90
16594;DHT22;8410;52.532;13.336;2022-08-25T02:02:51;19.70;99.90
16594;DHT22;8410;52.532;13.336;2022-08-25T02:05:21;19.60;99.90
16594;DHT22;8410;52.532;13.336;2022-08-25T02:07:49;19.60;99.90
16594;DHT22;8410;52.532;13.336;2022-08-25T02:10:18;19.60;99.90
16594;DHT22;8410;52.532;13.336;2022-08-25T02:12:48;19.60;99.90
16594;DHT22;8410;52.532;13.336;2022-08-25T02:15:20;19.60;99.90
16594;DHT22;8410;52.532;13.336;2022-08-25T02:17:48;19.50;99.90
16594;DHT22;8410;52.532;13.336;2022-08-25T02:20:16;19.50;99.90
16594;DHT22;8410;52.532;13.336;2022-08-25T02:22:44;19.50;99.90
16594;DHT22;8410;52.532;13.336;2022-08-25T02:25:24;19.50;99.90
16594;DHT22;8410;52.532;13.336;2022-08-25T02:27:52;19.60;99.90
16594;DHT22;8410;52.532;13.336;2022-08-25T02:30:21;19.50;99.90
16594;DHT22;8410;52.532;13.336;2022-08-25T02:32:49;19.50;99.90
16594;DHT22;8410;52.532;13.336;2022-08-25T02:35:18;19.40;99.90
16594;DHT22;8410;52.532;13.336;2022-08-25T02:37:46;19.40;99.90
16594;DHT22;8410;52.532;13.336;2022-08-25T02:40:14;19.30;99.90
16594;DHT22;8410;52.532;13.336;2022-08-25T02:42:44;19.20;99.90
16594;DHT22;8410;52.532;13.336;2022-08-25T02:45:12;19.40;99.90
16594;DHT22;8410;52.532;13.336;2022-08-25T02:47:40;19.40;99.90
16594;DHT22;8410;52.532;13.336;2022-08-25T02:50:08;19.40;99.90
16594;DHT22;8410;52.532;13.336;2022-08-25T02:52:37;19.40;99.90
16594;DHT22;8410;52.532;13.336;2022-08-25T02:55:09;19.40;99.90
16594;DHT22;8410;52.532;13.336;2022-08-25T02:57:40;19.30;99.90
16594;DHT22;8410;52.532;13.336;2022-08-25T03:00:11;19.30;99.90
16594;DHT22;8410;52.532;13.336;2022-08-25T03:02:43;19.20;99.90
16594;DHT22;8410;52.532;13.336;2022-08-25T03:05:13;19.10;99.90
16594;DHT22;8410;52.532;13.336;2022-08-25T03:07:42;19.10;99.90
16594;DHT22;8410;52.532;13.336;2022-08-25T03:10:14;19.10;99.90
16594;DHT22;8410;52.532;13.336;2022-08-25T03:12:43;19.20;99.90
16594;DHT22;8410;52.532;13.336;2022-08-25T03:15:15;19.10;99.90
16594;DHT22;8410;52.532;13.336;2022-08-25T03:17:45;19.10;99.90
16594;DHT22;8410;52.532;13.336;2022-08-25T03:20:16;19.10;99.90
16594;DHT22;8410;52.532;13.336;2022-08-25T03:22:46;19.10;99.90
16594;DHT22;8410;52.532;13.336;2022-08-25T03:25:15;19.10;99.90
16594;DHT22;8410;52.532;13.336;2022-08-25T03:28:02;19.10;99.90
16594;DHT22;8410;52.532;13.336;2022-08-25T03:30:32;19.10;99.90
16594;DHT22;8410;52.532;13.336;2022-08-25T03:33:00;19.10;99.90
16594;DHT22;8410;52.532;13.336;2022-08-25T03:35:28;18.90;99.90
16594;DHT22;8410;52.532;13.336;2022-08-25T03:37:59;18.70;99.90
16594;DHT22;8410;52.532;13.336;2022-08-25T03:40:27;18.70;99.90
16594;DHT22;8410;52.532;13.336;2022-08-25T03:42:56;18.70;99.90
16594;DHT22;8410;52.532;13.336;2022-08-25T03:45:24;18.60;99.90
16594;DHT22;8410;52.532;13.336;2022-08-25T03:47:53;18.80;99.90
16594;DHT22;8410;52.532;13.336;2022-08-25T03:50:23;18.80;99.90
16594;DHT22;8410;52.532;13.336;2022-08-25T03:52:52;18.70;99.90
16594;DHT22;8410;52.532;13.336;2022-08-25T03:55:23;18.80;99.90
16594;DHT22;8410;52.532;13.336;2022-08-25T03:57:54;18.70;99.90
16594;DHT22;8410;52.532;13.336;2022-08-25T04:00:22;18.70;99.90
16594;DHT22;8410;52.532;13.336;2022-08-25T04:02:50;18.70;99.90
16594;DHT22;8410;52.532;13.336;2022-08-25T04:05:20;18.80;99.90
16594;DHT22;8410;52.532;13.336;2022-08-25T04:07:52;18.90;99.90
16594;DHT22;8410;52.532;13.336;2022-08-25T04:10:20;18.90;99.90
16594;DHT22;8410;52.532;13.336;2022-08-25T04:12:48;18.80;99.90
16594;DHT22;8410;52.532;13.336;2022-08-25T04:15:16;18.80;99.90
16594;DHT22;8410;52.532;13.336;2022-08-25T04:17:45;18.70;99.90
16594;DHT22;8410;52.532;13.336;2022-08-25T04:20:16;18.70;99.90
16594;DHT22;8410;52.532;13.336;2022-08-25T04:22:45;18.70;99.90
16594;DHT22;8410;52.532;13.336;2022-08-25T04:25:13;18.80;99.90
16594;DHT22;8410;52.532;13.336;2022-08-25T04:27:41;18.70;99.90
16594;DHT22;8410;52.532;13.336;2022-08-25T04:30:10;18.50;99.90
16594;DHT22;8410;52.532;13.336;2022-08-25T04:32:39;18.30;99.90
16594;DHT22;8410;52.532;13.336;2022-08-25T04:35:08;18.50;99.90
16594;DHT22;8410;52.532;13.336;2022-08-25T04:37:36;18.60;99.90
16594;DHT22;8410;52.532;13.336;2022-08-25T04:40:07;18.60;99.90
16594;DHT22;8410;52.532;13.336;2022-08-25T04:42:36;18.60;99.90
16594;DHT22;8410;52.532;13.336;2022-08-25T04:45:05;18.60;99.90
16594;DHT22;8410;52.532;13.336;2022-08-25T04:47:36;18.60;99.90
16594;DHT22;8410;52.532;13.336;2022-08-25T04:50:05;18.90;99.90
16594;DHT22;8410;52.532;13.336;2022-08-25T04:52:34;18.90;99.90
16594;DHT22;8410;52.532;13.336;2022-08-25T04:55:03;19.00;99.90
16594;DHT22;8410;52.532;13.336;2022-08-25T04:57:33;18.70;99.90
16594;DHT22;8410;52.532;13.336;2022-08-25T05:00:01;18.50;99.90
16594;DHT22;8410;52.532;13.336;2022-08-25T05:02:31;18.90;99.90
16594;DHT22;8410;52.532;13.336;2022-08-25T05:04:59;18.90;99.90
16594;DHT22;8410;52.532;13.336;2022-08-25T05:07:28;18.90;99.90
16594;DHT22;8410;52.532;13.336;2022-08-25T05:09:56;18.80;99.90
16594;DHT22;8410;52.532;13.336;2022-08-25T05:12:24;19.00;99.90
16594;DHT22;8410;52.532;13.336;2022-08-25T05:14:55;18.70;99.90
16594;DHT22;8410;52.532;13.336;2022-08-25T05:17:44;18.40;99.90
16594;DHT22;8410;52.532;13.336;2022-08-25T05:20:12;18.30;99.90
16594;DHT22;8410;52.532;13.336;2022-08-25T05:22:43;18.40;99.90
16594;DHT22;8410;52.532;13.336;2022-08-25T05:25:12;18.40;99.90
16594;DHT22;8410;52.532;13.336;2022-08-25T05:27:41;18.50;99.90
16594;DHT22;8410;52.532;13.336;2022-08-25T05:30:11;18.50;99.90
16594;DHT22;8410;52.532;13.336;2022-08-25T05:32:39;18.60;99.90
16594;DHT22;8410;52.532;13.336;2022-08-25T05:35:07;18.80;99.90
16594;DHT22;8410;52.532;13.336;2022-08-25T05:37:35;19.20;99.90
16594;DHT22;8410;52.532;13.336;2022-08-25T05:40:04;18.90;99.90
16594;DHT22;8410;52.532;13.336;2022-08-25T05:42:33;18.90;99.90
16594;DHT22;8410;52.532;13.336;2022-08-25T05:45:03;18.70;99.90
16594;DHT22;8410;52.532;13.336;2022-08-25T05:47:33;18.70;99.90
16594;DHT22;8410;52.532;13.336;2022-08-25T05:50:01;18.60;99.90
16594;DHT22;8410;52.532;13.336;2022-08-25T05:52:30;18.60;99.90
16594;DHT22;8410;52.532;13.336;2022-08-25T05:54:58;18.60;99.90
16594;DHT22;8410;52.532;13.336;2022-08-25T05:57:26;18.60;99.90
16594;DHT22;8410;52.532;13.336;2022-08-25T05:59:54;18.90;99.90
16594;DHT22;8410;52.532;13.336;2022-08-25T06:02:21;18.70;99.90
16594;DHT22;8410;52.532;13.336;2022-08-25T06:05:09;18.70;99.90
16594;DHT22;8410;52.532;13.336;2022-08-25T06:07:39;18.90;99.90
16594;DHT22;8410;52.532;13.336;2022-08-25T06:10:08;18.80;99.90
16594;DHT22;8410;52.532;13.336;2022-08-25T06:12:40;18.70;99.90
16594;DHT22;8410;52.532;13.336;2022-08-25T06:15:12;19.00;99.90
16594;DHT22;8410;52.532;13.336;2022-08-25T06:17:41;19.10;99.90
16594;DHT22;8410;52.532;13.336;2022-08-25T06:20:13;19.10;99.90
16594;DHT22;8410;52.532;13.336;2022-08-25T06:22:43;18.90;99.90
16594;DHT22;8410;52.532;13.336;2022-08-25T06:25:16;18.80;99.90
16594;DHT22;8410;52.532;13.336;2022-08-25T06:27:46;18.80;99.90
16594;DHT22;8410;52.532;13.336;2022-08-25T06:30:17;18.70;99.90
16594;DHT22;8410;52.532;13.336;2022-08-25T06:32:54;18.70;99.90
16594;DHT22;8410;52.532;13.336;2022-08-25T06:35:23;18.60;99.90
16594;DHT22;8410;52.532;13.336;2022-08-25T06:37:52;18.70;99.90
16594;DHT22;8410;52.532;13.336;2022-08-25T06:40:20;18.80;99.90
16594;DHT22;8410;52.532;13.336;2022-08-25T06:42:48;18.90;99.90
16594;DHT22;8410;52.532;13.336;2022-08-25T06:45:16;19.00;99.90
16594;DHT22;8410;52.532;13.336;2022-08-25T06:47:44;18.90;99.90
16594;DHT22;8410;52.532;13.336;2022-08-25T06:50:13;18.90;99.90
16594;DHT22;8410;52.532;13.336;2022-08-25T06:52:42;18.90;99.90
16594;DHT22;8410;52.532;13.336;2022-08-25T06:55:10;19.00;99.90
16594;DHT22;8410;52.532;13.336;2022-08-25T06:57:38;18.90;99.90
16594;DHT22;8410;52.532;13.336;2022-08-25T07:00:07;19.10;99.90
16594;DHT22;8410;52.532;13.336;2022-08-25T07:02:38;19.30;99.90
16594;DHT22;8410;52.532;13.336;2022-08-25T07:05:06;19.50;99.90
16594;DHT22;8410;52.532;13.336;2022-08-25T07:07:39;19.40;99.90
16594;DHT22;8410;52.532;13.336;2022-08-25T07:10:11;19.40;99.90
16594;DHT22;8410;52.532;13.336;2022-08-25T07:12:44;19.10;99.90
16594;DHT22;8410;52.532;13.336;2022-08-25T07:15:12;19.20;99.90
16594;DHT22;8410;52.532;13.336;2022-08-25T07:17:47;19.20;99.90
16594;DHT22;8410;52.532;13.336;2022-08-25T07:20:15;19.40;99.90
16594;DHT22;8410;52.532;13.336;2022-08-25T07:22:46;19.40;99.90
16594;DHT22;8410;52.532;13.336;2022-08-25T07:25:15;19.50;99.90
16594;DHT22;8410;52.532;13.336;2022-08-25T07:27:44;19.70;99.90
16594;DHT22;8410;52.532;13.336;2022-08-25T07:30:12;19.70;99.90
16594;DHT22;8410;52.532;13.336;2022-08-25T07:32:40;19.80;99.90
16594;DHT22;8410;52.532;13.336;2022-08-25T07:35:09;19.70;99.90
16594;DHT22;8410;52.532;13.336;2022-08-25T07:37:47;19.70;99.90
16594;DHT22;8410;52.532;13.336;2022-08-25T07:40:20;19.80;99.90
16594;DHT22;8410;52.532;13.336;2022-08-25T07:42:51;19.80;99.90
16594;DHT22;8410;52.532;13.336;2022-08-25T07:45:21;20.00;99.90
16594;DHT22;8410;52.532;13.336;2022-08-25T07:47:56;20.00;99.90
16594;DHT22;8410;52.532;13.336;2022-08-25T07:50:26;20.00;99.90
16594;DHT22;8410;52.532;13.336;2022-08-25T07:52:55;20.10;99.90
16594;DHT22;8410;52.532;13.336;2022-08-25T07:55:27;20.30;99.90
16594;DHT22;8410;52.532;13.336;2022-08-25T07:57:56;20.50;99.90
16594;DHT22;8410;52.532;13.336;2022-08-25T08:00:27;20.50;99.90
16594;DHT22;8410;52.532;13.336;2022-08-25T08:02:59;20.60;99.90
16594;DHT22;8410;52.532;13.336;2022-08-25T08:05:29;20.50;99.90
16594;DHT22;8410;52.532;13.336;2022-08-25T08:07:59;20.30;99.90
16594;DHT22;8410;52.532;13.336;2022-08-25T08:10:29;20.30;99.90
16594;DHT22;8410;52.532;13.336;2022-08-25T08:13:17;20.40;99.90
16594;DHT22;8410;52.532;13.336;2022-08-25T08:15:46;20.50;99.90
16594;DHT22;8410;52.532;13.336;2022-08-25T08:18:14;20.60;99.90
16594;DHT22;8410;52.532;13.336;2022-08-25T08:20:44;20.80;99.90
16594;DHT22;8410;52.532;13.336;2022-08-25T08:23:14;20.80;99.90
16594;DHT22;8410;52.532;13.336;2022-08-25T08:25:44;20.80;99.90
16594;DHT22;8410;52.532;13.336;2022-08-25T08:28:13;20.90;99.90
16594;DHT22;8410;52.532;13.336;2022-08-25T08:30:41;21.10;99.90
16594;DHT22;8410;52.532;13.336;2022-08-25T08:33:21;21.30;99.90
16594;DHT22;8410;52.532;13.336;2022-08-25T08:35:55;21.30;99.90
16594;DHT22;8410;52.532;13.336;2022-08-25T08:38:24;21.40;99.90
16594;DHT22;8410;52.532;13.336;2022-08-25T08:41:10;21.50;99.90
16594;DHT22;8410;52.532;13.336;2022-08-25T08:44:26;21.70;99.90
16594;DHT22;8410;52.532;13.336;2022-08-25T08:47:04;21.80;99.90
16594;DHT22;8410;52.532;13.336;2022-08-25T08:49:43;21.70;99.90
16594;DHT22;8410;52.532;13.336;2022-08-25T08:52:19;21.90;99.90
16594;DHT22;8410;52.532;13.336;2022-08-25T08:54:59;22.00;99.90
16594;DHT22;8410;52.532;13.336;2022-08-25T08:57:36;22.30;99.90
16594;DHT22;8410;52.532;13.336;2022-08-25T09:00:10;21.70;99.90
16594;DHT22;8410;52.532;13.336;2022-08-25T09:02:45;21.50;99.90
16594;DHT22;8410;52.532;13.336;2022-08-25T09:05:19;21.50;99.90
16594;DHT22;8410;52.532;13.336;2022-08-25T09:07:53;21.60;99.90
16594;DHT22;8410;52.532;13.336;2022-08-25T09:10:25;21.90;99.90
16594;DHT22;8410;52.532;13.336;2022-08-25T09:13:11;22.20;99.90
16594;DHT22;8410;52.532;13.336;2022-08-25T09:15:55;22.40;99.90
16594;DHT22;8410;52.532;13.336;2022-08-25T09:19:08;22.70;99.90
16594;DHT22;8410;52.532;13.336;2022-08-25T09:21:54;22.70;99.90
16594;DHT22;8410;52.532;13.336;2022-08-25T09:24:38;22.70;99.90
16594;DHT22;8410;52.532;13.336;2022-08-25T09:27:24;22.70;99.90
16594;DHT22;8410;52.532;13.336;2022-08-25T09:30:04;22.60;99.90
16594;DHT22;8410;52.532;13.336;2022-08-25T09:32:39;22.60;99.90
16594;DHT22;8410;52.532;13.336;2022-08-25T09:35:21;22.30;99.90
16594;DHT22;8410;52.532;13.336;2022-08-25T09:37:57;22.20;99.90
16594;DHT22;8410;52.532;13.336;2022-08-25T09:40:27;22.40;99.90
16594;DHT22;8410;52.532;13.336;2022-08-25T09:42:59;22.60;99.90
16594;DHT22;8410;52.532;13.336;2022-08-25T09:45:36;22.40;99.90
16594;DHT22;8410;52.532;13.336;2022-08-25T09:48:24;22.50;99.90
16594;DHT22;8410;52.532;13.336;2022-08-25T09:51:15;22.30;99.90
16594;DHT22;8410;52.532;13.336;2022-08-25T09:53:50;22.20;99.90
16594;DHT22;8410;52.532;13.336;2022-08-25T09:56:22;22.40;99.90
16594;DHT22;8410;52.532;13.336;2022-08-25T09:58:54;22.50;99.90
16594;DHT22;8410;52.532;13.336;2022-08-25T10:01:29;22.50;99.90
16594;DHT22;8410;52.532;13.336;2022-08-25T10:04:02;22.50;99.90
16594;DHT22;8410;52.532;13.336;2022-08-25T10:06:44;22.80;99.90
16594;DHT22;8410;52.532;13.336;2022-08-25T10:09:30;22.90;99.90
16594;DHT22;8410;52.532;13.336;2022-08-25T10:12:01;23.00;99.90
16594;DHT22;8410;52.532;13.336;2022-08-25T10:14:33;23.10;99.90
16594;DHT22;8410;52.532;13.336;2022-08-25T10:17:14;22.50;99.90
16594;DHT22;8410;52.532;13.336;2022-08-25T10:19:55;22.80;99.90
16594;DHT22;8410;52.532;13.336;2022-08-25T10:22:42;23.00;99.90
16594;DHT22;8410;52.532;13.336;2022-08-25T10:25:15;23.00;99.90
16594;DHT22;8410;52.532;13.336;2022-08-25T10:27:53;22.80;99.90
16594;DHT22;8410;52.532;13.336;2022-08-25T10:30:37;23.20;99.90
16594;DHT22;8410;52.532;13.336;2022-08-25T10:33:25;23.30;99.90
16594;DHT22;8410;52.532;13.336;2022-08-25T10:36:06;23.40;99.90
16594;DHT22;8410;52.532;13.336;2022-08-25T10:38:42;23.40;99.90
16594;DHT22;8410;52.532;13.336;2022-08-25T10:44:17;23.30;99.90
16594;DHT22;8410;52.532;13.336;2022-08-25T10:47:26;23.20;99.90
16594;DHT22;8410;52.532;13.336;2022-08-25T10:50:25;23.40;99.90
16594;DHT22;8410;52.532;13.336;2022-08-25T10:53:08;23.30;99.90
16594;DHT22;8410;52.532;13.336;2022-08-25T10:55:53;23.40;99.90
16594;DHT22;8410;52.532;13.336;2022-08-25T11:02:23;23.40;99.90
16594;DHT22;8410;52.532;13.336;2022-08-25T11:05:24;23.70;99.90
16594;DHT22;8410;52.532;13.336;2022-08-25T11:08:00;24.00;99.90
16594;DHT22;8410;52.532;13.336;2022-08-25T11:10:41;24.10;99.90
16594;DHT22;8410;52.532;13.336;2022-08-25T11:13:21;24.10;99.90
16594;DHT22;8410;52.532;13.336;2022-08-25T11:16:00;24.00;99.90
16594;DHT22;8410;52.532;13.336;2022-08-25T11:18:50;23.90;99.90
16594;DHT22;8410;52.532;13.336;2022-08-25T11:21:26;23.80;99.90
16594;DHT22;8410;52.532;13.336;2022-08-25T11:24:09;23.80;99.90
16594;DHT22;8410;52.532;13.336;2022-08-25T11:26:53;24.00;99.90
16594;DHT22;8410;52.532;13.336;2022-08-25T11:29:25;24.10;99.90
16594;DHT22;8410;52.532;13.336;2022-08-25T11:31:59;24.00;99.90
16594;DHT22;8410;52.532;13.336;2022-08-25T11:34:30;24.10;99.90
16594;DHT22;8410;52.532;13.336;2022-08-25T11:37:06;24.40;99.90
16594;DHT22;8410;52.532;13.336;2022-08-25T11:40:05;24.40;99.90
16594;DHT22;8410;52.532;13.336;2022-08-25T11:42:51;24.30;99.90
16594;DHT22;8410;52.532;13.336;2022-08-25T11:45:47;24.60;99.90
16594;DHT22;8410;52.532;13.336;2022-08-25T11:48:40;24.90;99.90
16594;DHT22;8410;52.532;13.336;2022-08-25T11:51:29;24.90;99.90
16594;DHT22;8410;52.532;13.336;2022-08-25T11:54:17;24.90;99.90
16594;DHT22;8410;52.532;13.336;2022-08-25T11:56:55;25.10;99.90
16594;DHT22;8410;52.532;13.336;2022-08-25T12:00:00;24.90;99.90
16594;DHT22;8410;52.532;13.336;2022-08-25T12:02:35;24.80;99.90
16594;DHT22;8410;52.532;13.336;2022-08-25T12:05:08;24.80;99.90
16594;DHT22;8410;52.532;13.336;2022-08-25T12:08:02;25.00;99.90
16594;DHT22;8410;52.532;13.336;2022-08-25T12:10:56;25.10;99.90
16594;DHT22;8410;52.532;13.336;2022-08-25T12:13:44;25.20;99.90
16594;DHT22;8410;52.532;13.336;2022-08-25T12:16:37;25.20;99.90
16594;DHT22;8410;52.532;13.336;2022-08-25T12:19:30;25.10;99.90
16594;DHT22;8410;52.532;13.336;2022-08-25T12:22:41;25.00;99.90
16594;DHT22;8410;52.532;13.336;2022-08-25T12:28:44;25.10;99.90
16594;DHT22;8410;52.532;13.336;2022-08-25T12:31:42;25.20;99.90
16594;DHT22;8410;52.532;13.336;2022-08-25T12:34:34;25.40;99.90
16594;DHT22;8410;52.532;13.336;2022-08-25T12:37:13;25.60;99.90
16594;DHT22;8410;52.532;13.336;2022-08-25T12:39:52;25.40;99.90
16594;DHT22;8410;52.532;13.336;2022-08-25T12:42:30;25.40;99.90
16594;DHT22;8410;52.532;13.336;2022-08-25T12:45:11;25.50;99.90
16594;DHT22;8410;52.532;13.336;2022-08-25T12:48:53;25.50;99.90
16594;DHT22;8410;52.532;13.336;2022-08-25T12:51:24;25.40;99.90
16594;DHT22;8410;52.532;13.336;2022-08-25T12:53:58;25.50;99.90
16594;DHT22;8410;52.532;13.336;2022-08-25T12:56:44;25.40;99.90
16594;DHT22;8410;52.532;13.336;2022-08-25T12:59:17;25.30;99.90
16594;DHT22;8410;52.532;13.336;2022-08-25T13:02:00;25.30;99.90
16594;DHT22;8410;52.532;13.336;2022-08-25T13:05:00;25.40;99.90
16594;DHT22;8410;52.532;13.336;2022-08-25T13:07:52;25.40;99.90
16594;DHT22;8410;52.532;13.336;2022-08-25T13:10:44;25.50;99.90
16594;DHT22;8410;52.532;13.336;2022-08-25T13:16:19;25.50;99.90
16594;DHT22;8410;52.532;13.336;2022-08-25T13:18:56;25.40;99.90
16594;DHT22;8410;52.532;13.336;2022-08-25T13:21:30;25.40;99.90
16594;DHT22;8410;52.532;13.336;2022-08-25T13:24:12;25.40;99.90
16594;DHT22;8410;52.532;13.336;2022-08-25T13:26:49;25.40;99.90
16594;DHT22;8410;52.532;13.336;2022-08-25T13:29:22;25.40;99.90
16594;DHT22;8410;52.532;13.336;2022-08-25T13:31:55;25.60;99.90
16594;DHT22;8410;52.532;13.336;2022-08-25T13:34:29;25.80;99.90
16594;DHT22;8410;52.532;13.336;2022-08-25T13:37:04;25.90;99.90
16594;DHT22;8410;52.532;13.336;2022-08-25T13:40:07;26.00;99.90
16594;DHT22;8410;52.532;13.336;2022-08-25T13:42:37;26.10;99.90
16594;DHT22;8410;52.532;13.336;2022-08-25T13:45:14;26.20;99.90
16594;DHT22;8410;52.532;13.336;2022-08-25T13:47:51;26.20;99.90
16594;DHT22;8410;52.532;13.336;2022-08-25T13:50:30;26.20;99.90
16594;DHT22;8410;52.532;13.336;2022-08-25T13:53:05;26.40;99.90
16594;DHT22;8410;52.532;13.336;2022-08-25T13:55:47;26.40;99.90
16594;DHT22;8410;52.532;13.336;2022-08-25T13:58:21;26.30;99.90
16594;DHT22;8410;52.532;13.336;2022-08-25T14:01:13;26.30;99.90
16594;DHT22;8410;52.532;13.336;2022-08-25T14:04:23;26.20;99.90
16594;DHT22;8410;52.532;13.336;2022-08-25T14:07:22;26.20;99.90
16594;DHT22;8410;52.532;13.336;2022-08-25T14:10:01;26.40;99.90
16594;DHT22;8410;52.532;13.336;2022-08-25T14:12:38;26.30;99.90
16594;DHT22;8410;52.532;13.336;2022-08-25T14:15:26;26.00;99.90
16594;DHT22;8410;52.532;13.336;2022-08-25T14:18:02;26.00;99.90
16594;DHT22;8410;52.532;13.336;2022-08-25T14:20:35;26.00;99.90
16594;DHT22;8410;52.532;13.336;2022-08-25T14:23:12;26.10;99.90
16594;DHT22;8410;52.532;13.336;2022-08-25T14:25:45;26.20;99.90
16594;DHT22;8410;52.532;13.336;2022-08-25T14:28:15;26.40;99.90
16594;DHT22;8410;52.532;13.336;2022-08-25T14:30:49;26.40;99.90
16594;DHT22;8410;52.532;13.336;2022-08-25T14:33:23;26.50;99.90
16594;DHT22;8410;52.532;13.336;2022-08-25T14:35:57;26.50;99.90
16594;DHT22;8410;52.532;13.336;2022-08-25T14:38:28;26.50;99.90
16594;DHT22;8410;52.532;13.336;2022-08-25T14:40:56;26.50;99.90
16594;DHT22;8410;52.532;13.336;2022-08-25T14:43:25;26.70;99.90
16594;DHT22;8410;52.532;13.336;2022-08-25T14:45:59;26.60;99.90
16594;DHT22;8410;52.532;13.336;2022-08-25T14:48:33;26.60;99.90
16594;DHT22;8410;52.532;13.336;2022-08-25T14:51:10;26.60;99.90
16594;DHT22;8410;52.532;13.336;2022-08-25T14:53:41;26.50;99.90
16594;DHT22;8410;52.532;13.336;2022-08-25T14:56:09;26.40;99.90
16594;DHT22;8410;52.532;13.336;2022-08-25T14:58:39;26.30;99.90
16594;DHT22;8410;52.532;13.336;2022-08-25T15:01:20;26.10;99.90
16594;DHT22;8410;52.532;13.336;2022-08-25T15:04:00;26.10;99.90
16594;DHT22;8410;52.532;13.336;2022-08-25T15:06:34;26.10;99.90
16594;DHT22;8410;52.532;13.336;2022-08-25T15:09:04;26.20;99.90
16594;DHT22;8410;52.532;13.336;2022-08-25T15:11:39;26.40;99.90
16594;DHT22;8410;52.532;13.336;2022-08-25T15:14:10;26.40;99.90
16594;DHT22;8410;52.532;13.336;2022-08-25T15:16:43;26.50;99.90
16594;DHT22;8410;52.532;13.336;2022-08-25T15:19:16;26.40;99.90
16594;DHT22;8410;52.532;13.336;2022-08-25T15:21:47;26.60;99.90
16594;DHT22;8410;52.532;13.336;2022-08-25T15:24:18;26.50;99.90
16594;DHT22;8410;52.532;13.336;2022-08-25T15:26:50;26.50;99.90
16594;DHT22;8410;52.532;13.336;2022-08-25T15:29:27;26.40;99.90
16594;DHT22;8410;52.532;13.336;2022-08-25T15:31:58;26.40;99.90
16594;DHT22;8410;52.532;13.336;2022-08-25T15:34:27;26.50;99.90
16594;DHT22;8410;52.532;13.336;2022-08-25T15:36:57;26.40;99.90
16594;DHT22;8410;52.532;13.336;2022-08-25T15:39:28;26.50;99.90
16594;DHT22;8410;52.532;13.336;2022-08-25T15:41:56;26.50;99.90
16594;DHT22;8410;52.532;13.336;2022-08-25T15:44:24;26.50;99.90
16594;DHT22;8410;52.532;13.336;2022-08-25T15:46:55;26.50;99.90
16594;DHT22;8410;52.532;13.336;2022-08-25T15:49:27;26.50;99.90
16594;DHT22;8410;52.532;13.336;2022-08-25T15:51:58;26.40;99.90
16594;DHT22;8410;52.532;13.336;2022-08-25T15:54:28;26.30;99.90
16594;DHT22;8410;52.532;13.336;2022-08-25T15:56:56;26.30;99.90
16594;DHT22;8410;52.532;13.336;2022-08-25T15:59:26;26.40;99.90
16594;DHT22;8410;52.532;13.336;2022-08-25T16:01:55;26.50;99.90
16594;DHT22;8410;52.532;13.336;2022-08-25T16:04:25;26.50;99.90
16594;DHT22;8410;52.532;13.336;2022-08-25T16:06:54;26.50;99.90
16594;DHT22;8410;52.532;13.336;2022-08-25T16:09:25;26.50;99.90
16594;DHT22;8410;52.532;13.336;2022-08-25T16:11:56;26.50;99.90
16594;DHT22;8410;52.532;13.336;2022-08-25T16:14:31;26.40;99.90
16594;DHT22;8410;52.532;13.336;2022-08-25T16:16:58;26.40;99.90
16594;DHT22;8410;52.532;13.336;2022-08-25T16:19:27;26.40;99.90
16594;DHT22;8410;52.532;13.336;2022-08-25T16:21:56;26.30;99.90
16594;DHT22;8410;52.532;13.336;2022-08-25T16:24:26;26.40;99.90
16594;DHT22;8410;52.532;13.336;2022-08-25T16:26:55;26.50;99.90
16594;DHT22;8410;52.532;13.336;2022-08-25T16:29:38;26.40;99.90